Historyczne dane pomiarowe

Dodano dane terminowe – wersja testowa.

Dane z okresu 1951-2019

Wersja bazy: 1.34 [2019-03-16, lista zmian], aktualizacja planowana na 2019-04-15

Dane meteo z obszaru Polski uzyskane na podstawie danych udostępnionych przez Instytut Meteorologii i Gospodarki Wodnej – Państwowy Instytut Badawczy.

 

Wybierz Datę:    

       

TemperaturaWilgotnośćWiatrCiśnienieOpadyŚniegCzas trwania zjawisk
 Stacja t tx tn tng RH VA  wxwx mslp ppp RRR   cm mm wxwxwxwxwxwxwx
1961-08-14 12.6 19.5 6.4 3.5 82.8- 6.0 1.0---- 0.0------------
1961-08-13 11.8 19.5 10.6 12.6 92.5- 7.3 2.0---- 5.3------------
1961-08-12 19.8 26.0 14.3 11.6 81.3- 4.7 2.3---- 8.1------------
1961-08-11 23.8 32.3 15.9 12.1 66.5- 0.7 4.7---- 0.3------------
1961-08-10 22.9 31.1 14.1 14.5 74.0- 1.3 1.0---- 0.0------------
1961-08-09 19.9 29.4 14.8 12.1 86.3- 4.7 0.3---- 2.0------------
1961-08-08 20.6 27.7 15.3 10.9 82.8- 3.0 1.3---- 0.0------------
1961-08-07 21.6 28.9 13.1 9.5 75.5- 0.0 2.3---- 0.0------------
1961-08-06 19.0 28.0 9.9 8.0 79.5- 0.3 1.3---- 0.0------------
1961-08-05 17.1 23.7 11.7 6.8 81.3- 3.0 0.7---- 0.0------------
1961-08-04 15.2 19.8 11.5 9.7 83.8- 6.3 1.3---- 0.0------------
1961-08-03 16.1 23.9 10.7 8.2 87.0- 7.7 1.7---- 14.3------------
1961-08-02 15.5 24.7 6.5 4.5 84.3- 2.7 1.0---- 0.0------------
1961-08-01 13.7 21.4 6.4 7.5 85.3- 4.3 0.7---- 0.0------------
1961-07-31 12.0 16.9 9.4 8.6 91.5- 7.7 0.7---- 2.8------------
1961-07-30 10.6 12.0 9.9 7.7 91.3- 8.0 1.3---- 7.7------------
1961-07-29 12.8 23.0 11.3 13.9 96.8- 8.0 1.3---- 31.6------------
1961-07-28 20.3 28.2 13.9 14.0 69.8- 5.0 3.3---- 4.7------------
1961-07-27 18.0 26.5 7.6 4.4 76.8- 2.7 1.3---- 0.0------------
1961-07-26 14.2 22.0 8.6 7.0 73.5- 3.3 1.3---- 0.0------------
1961-07-25 13.7 17.0 9.8 6.2 69.0- 7.0 2.0---- 0.0------------
1961-07-24 14.5 17.7 12.2 11.0 72.0- 7.7 1.3---- 0.0------------
1961-07-23 14.5 20.2 9.4 6.8 87.0- 7.7 1.0---- 0.0------------
1961-07-22 14.7 19.6 10.5 7.5 80.0- 7.0 1.3---- 0.0------------
1961-07-21 14.2 19.6 7.3 7.5 78.3- 4.7 1.0---- 0.4------------
1961-07-20 12.3 17.2 8.1 5.5 93.8- 7.7 0.3---- 16.1------------
1961-07-19 12.8 19.0 10.4 7.8 92.8- 5.3 1.0---- 0.4------------
1961-07-18 14.1 19.7 7.8 6.5 77.8- 7.0 0.7---- 4.4------------
1961-07-17 13.9 20.9 12.8 12.2 90.8- 5.3 0.3---- 5.0------------
1961-07-16 17.2 23.4 12.6 9.4 83.0- 4.0 1.3---- 3.4------------
1961-07-15 16.0 22.8 6.9 3.5 80.0- 4.0 2.7---- 3.7------------
1961-07-14 12.2 19.2 9.7 7.3 81.3- 4.3 2.0---- 2.0------------
1961-07-13 19.2 27.5 10.8 8.5 76.0- 3.3 4.0---- 5.2------------
1961-07-12 18.3 26.6 6.5 4.7 68.0- 2.7 1.7---- 0.0------------
1961-07-11 13.2 20.5 7.4 7.3 77.3- 3.7 1.3---- 0.0------------
1961-07-10 13.3 19.4 8.2 4.8 80.3- 7.7 1.7---- 7.6------------
1961-07-09 14.2 22.0 7.4 4.7 79.5- 4.7 0.0---- 4.5------------
1961-07-08 14.0 20.5 9.1 5.0 75.5- 1.7 0.7---- 0.0------------
1961-07-07 12.1 18.5 3.5 0.3 76.8- 6.3 0.3---- 0.0------------
1961-07-06 11.5 18.1 7.3 7.5 77.0- 1.7 1.3---- 0.0------------
1961-07-05 14.1 20.0 11.1 13.4 81.5- 7.0 1.3---- 6.2------------
1961-07-04 21.4 30.6 10.9 7.8 71.5- 4.7 0.7---- 3.4------------
1961-07-03 19.5 30.4 7.1 7.5 64.8- 0.3 0.7---- 0.0------------
1961-07-02 17.8 28.0 8.1 5.0 68.8- 0.0 0.7---- 0.0------------
1961-07-01 17.0 26.2 7.0 3.8 78.0- 2.0 1.3---- 0.0------------
1961-06-30 15.3 21.7 10.3 7.0 78.3- 3.0 1.0---- 0.0------------
1961-06-29 13.9 19.0 5.2 1.3 74.3- 4.7 1.7---- 0.0------------
1961-06-28 13.4 21.0 10.7 12.4 84.3- 6.3 2.0---- 0.2------------
1961-06-27 22.2 30.0 11.6 9.1 66.0- 2.7 3.7---- 4.3------------
1961-06-26 19.5 29.5 10.9 6.9 79.0- 4.7 2.0---- 0.0------------
1961-06-25 18.8 28.6 8.0 4.0 73.3- 0.7 0.7---- 0.0------------
1961-06-24 17.5 25.9 9.1 6.6 70.5- 3.3 2.0---- 0.0------------
1961-06-23 16.8 23.4 12.2 8.8 82.3- 2.7 0.7---- 0.0------------
1961-06-22 17.7 25.4 7.6 4.6 68.8- 2.3 2.0---- 11.5------------
1961-06-21 16.2 23.7 4.4 1.4 69.3- 0.0 0.7---- 0.0------------
1961-06-20 14.3 19.4 11.1 13.7 68.8- 3.0 2.7---- 0.0------------
1961-06-19 20.0 28.7 9.8 8.0 71.0- 3.0 1.3---- 0.0------------
1961-06-18 17.2 25.4 6.6 2.5 74.8- 1.7 0.3---- 0.0------------
1961-06-17 13.9 22.8 4.9 2.7 73.0- 1.3 1.0---- 0.0------------
1961-06-16 12.9 20.3 7.2 4.2 77.5- 1.3 1.3---- 0.0------------
385.0 ms

 

Źródłem pochodzenia danych jest Instytut Meteorologii i Gospodarki Wodnej – Państwowy Instytut Badawczy. Dane Instytutu Meteorologii i Gospodarki Wodnej – Państwowego Instytutu Badawczego zostały przetworzone.

Dane źródłowe można odnaleźć na stronie https://dane.imgw.pl